Time;durP1;ratioP1;P1;durP2;ratioP2;P2;SDS_P1;SDS_P2;PMS_P1;PMS_P2;Temp;Humidity;BMP_temperature;BMP_pressure;BME280_temperature;BME280_humidity;BME280_pressure;Samples;Min_cycle;Max_cycle;Signal;HPM_P1;HPM_P2
2023/05/14 00:00:46;;;;;;;;;;;16.00;99.90;;;;;;5092781;28;20000;-70
2023/05/14 00:03:12;;;;;;;;;;;16.10;99.90;;;;;;5091798;28;20366;-69
2023/05/14 00:05:39;;;;;;;;;;;16.20;99.90;;;;;;5092192;28;19926;-70
2023/05/14 00:08:06;;;;;;;;;;;16.30;99.90;;;;;;5092266;28;19908;-73
2023/05/14 00:10:32;;;;;;;;;;;16.40;99.90;;;;;;5092761;28;20407;-73
2023/05/14 00:12:59;;;;;;;;;;;16.50;99.90;;;;;;5092248;28;19930;-72
2023/05/14 00:15:26;;;;;;;;;;;16.60;99.90;;;;;;5091904;28;19908;-71
2023/05/14 00:17:52;;;;;;;;;;;16.60;99.90;;;;;;5092021;28;19973;-72
2023/05/14 00:20:19;;;;;;;;;;;16.70;99.90;;;;;;5091638;28;19944;-70
2023/05/14 00:22:46;;;;;;;;;;;16.80;99.90;;;;;;5091898;28;19920;-72
2023/05/14 00:25:13;;;;;;;;;;;17.00;99.90;;;;;;5092335;28;20018;-71
2023/05/14 00:27:39;;;;;;;;;;;17.10;99.90;;;;;;5090924;28;19999;-72
2023/05/14 00:30:06;;;;;;;;;;;17.20;99.90;;;;;;5091112;28;19908;-71
2023/05/14 00:32:33;;;;;;;;;;;17.30;99.90;;;;;;5091515;28;19935;-72
2023/05/14 00:35:01;;;;;;;;;;;17.40;99.90;;;;;;5091257;28;19915;-72
2023/05/14 00:37:28;;;;;;;;;;;17.50;99.90;;;;;;5089965;28;19920;-72
2023/05/14 00:39:55;;;;;;;;;;;17.60;99.90;;;;;;5090711;28;19912;-72
2023/05/14 00:42:21;;;;;;;;;;;17.70;99.90;;;;;;5090528;28;19963;-72
2023/05/14 00:44:48;;;;;;;;;;;17.90;99.90;;;;;;5090660;28;19915;-72
2023/05/14 00:47:15;;;;;;;;;;;17.90;99.90;;;;;;5089253;28;19919;-72
2023/05/14 00:49:42;;;;;;;;;;;18.00;99.90;;;;;;5091364;28;19999;-71
2023/05/14 00:52:09;;;;;;;;;;;18.10;99.90;;;;;;5091590;28;19904;-72
2023/05/14 00:54:36;;;;;;;;;;;18.20;99.90;;;;;;5091990;28;19951;-71
2023/05/14 00:57:03;;;;;;;;;;;18.20;99.90;;;;;;5091729;28;19922;-71
2023/05/14 00:59:29;;;;;;;;;;;18.30;99.90;;;;;;5092273;28;19908;-71
2023/05/14 01:01:56;;;;;;;;;;;18.30;99.90;;;;;;5092581;28;20395;-70
2023/05/14 01:04:23;;;;;;;;;;;18.40;99.90;;;;;;5092891;28;20311;-70
2023/05/14 01:07:19;;;;;;;;;;;18.40;99.90;;;;;;5091670;28;19913;-70
2023/05/14 01:10:14;;;;;;;;;;;18.30;99.90;;;;;;5083325;28;19908;-71
2023/05/14 01:13:01;;;;;;;;;;;18.20;99.90;;;;;;5083329;28;20420;-70
2023/05/14 01:15:28;;;;;;;;;;;18.40;99.90;;;;;;5092311;28;20362;-70
2023/05/14 01:18:03;;;;;;;;;;;18.50;99.90;;;;;;5092244;28;20527;-71
2023/05/14 01:20:30;;;;;;;;;;;18.60;99.90;;;;;;5091502;28;20012;-70
2023/05/14 01:22:56;;;;;;;;;;;18.80;99.90;;;;;;5092399;28;20046;-69
2023/05/14 01:25:23;;;;;;;;;;;19.00;99.90;;;;;;5072438;28;20024;-70
2023/05/14 01:27:59;;;;;;;;;;;19.10;99.90;;;;;;5090426;28;19909;-71
2023/05/14 01:30:28;;;;;;;;;;;19.10;99.90;;;;;;5090587;28;20352;-72
2023/05/14 01:32:57;;;;;;;;;;;19.20;99.90;;;;;;5089304;28;19947;-72
2023/05/14 01:35:25;;;;;;;;;;;19.10;99.90;;;;;;5090174;28;19992;-70
2023/05/14 01:37:53;;;;;;;;;;;19.10;99.90;;;;;;5090433;28;20344;-72
2023/05/14 01:40:20;;;;;;;;;;;19.00;99.90;;;;;;5087285;28;19912;-70
2023/05/14 01:42:47;;;;;;;;;;;19.00;99.90;;;;;;5086961;28;19943;-70
2023/05/14 01:45:14;;;;;;;;;;;19.00;99.90;;;;;;5091132;28;19966;-71
2023/05/14 01:47:40;;;;;;;;;;;19.00;99.90;;;;;;5090784;28;19919;-72
2023/05/14 01:50:07;;;;;;;;;;;19.00;99.90;;;;;;5090274;28;20430;-72
2023/05/14 01:52:33;;;;;;;;;;;19.00;99.90;;;;;;5089900;28;19912;-72
2023/05/14 01:55:00;;;;;;;;;;;19.00;99.90;;;;;;5091200;28;19912;-73
2023/05/14 01:57:27;;;;;;;;;;;19.30;99.90;;;;;;5091161;28;20292;-72
2023/05/14 01:59:53;;;;;;;;;;;19.50;99.90;;;;;;5090755;28;19913;-72
2023/05/14 02:02:20;;;;;;;;;;;19.70;99.90;;;;;;5090629;28;19924;-71
2023/05/14 02:04:47;;;;;;;;;;;19.70;99.90;;;;;;5090713;28;20456;-72
2023/05/14 02:07:13;;;;;;;;;;;19.80;99.90;;;;;;5094675;28;20328;-71
2023/05/14 02:09:40;;;;;;;;;;;20.00;99.90;;;;;;5094745;28;19953;-72
2023/05/14 02:12:08;;;;;;;;;;;20.10;99.90;;;;;;5094521;28;19931;-69
2023/05/14 02:14:34;;;;;;;;;;;20.40;99.90;;;;;;5094474;28;19916;-71
2023/05/14 02:17:02;;;;;;;;;;;20.50;99.90;;;;;;5094933;28;19908;-70
2023/05/14 02:19:29;;;;;;;;;;;20.40;99.90;;;;;;5094793;28;19908;-73
2023/05/14 02:21:56;;;;;;;;;;;20.40;99.90;;;;;;5094362;28;20441;-72
2023/05/14 02:24:22;;;;;;;;;;;20.30;99.90;;;;;;5074602;28;19912;-72
2023/05/14 02:26:49;;;;;;;;;;;20.20;99.90;;;;;;5088693;28;19916;-73
2023/05/14 02:29:15;;;;;;;;;;;20.20;99.90;;;;;;5094779;28;20279;-72
2023/05/14 02:31:42;;;;;;;;;;;20.30;99.90;;;;;;5095006;28;19914;-72
2023/05/14 02:34:09;;;;;;;;;;;20.30;99.90;;;;;;5075736;28;19912;-72
2023/05/14 02:36:35;;;;;;;;;;;20.20;99.90;;;;;;5094978;28;19978;-72
2023/05/14 02:39:03;;;;;;;;;;;20.10;99.90;;;;;;5094356;28;19912;-71
2023/05/14 02:41:30;;;;;;;;;;;20.00;99.90;;;;;;5094302;28;19916;-72
2023/05/14 02:43:56;;;;;;;;;;;19.90;99.90;;;;;;5093986;28;19920;-72
2023/05/14 02:46:23;;;;;;;;;;;19.90;99.90;;;;;;5094193;28;19965;-72
2023/05/14 02:48:50;;;;;;;;;;;19.80;99.90;;;;;;5094598;28;19908;-70
2023/05/14 02:51:17;;;;;;;;;;;19.70;99.90;;;;;;5094556;28;19920;-70
2023/05/14 02:53:43;;;;;;;;;;;19.70;99.90;;;;;;5094161;28;20015;-72
2023/05/14 02:56:10;;;;;;;;;;;19.90;99.90;;;;;;5093777;28;19915;-70
2023/05/14 02:58:36;;;;;;;;;;;20.10;99.90;;;;;;5093820;28;19935;-70
2023/05/14 03:01:03;;;;;;;;;;;20.20;99.90;;;;;;5094143;28;19912;-70
2023/05/14 03:03:30;;;;;;;;;;;20.20;99.90;;;;;;5093788;28;20360;-72
2023/05/14 03:05:56;;;;;;;;;;;20.20;99.90;;;;;;5094200;28;19954;-70
2023/05/14 03:08:23;;;;;;;;;;;20.40;99.90;;;;;;5093684;28;20310;-70
2023/05/14 03:10:50;;;;;;;;;;;20.30;99.90;;;;;;5093646;28;20380;-70
2023/05/14 03:13:18;;;;;;;;;;;20.20;99.90;;;;;;5092960;28;19920;-70
2023/05/14 03:15:46;;;;;;;;;;;20.10;99.90;;;;;;5093990;28;19908;-68
2023/05/14 03:18:13;;;;;;;;;;;20.50;99.90;;;;;;5093534;28;20057;-70
2023/05/14 03:20:41;;;;;;;;;;;20.70;99.90;;;;;;5094207;28;19908;-69
2023/05/14 03:23:08;;;;;;;;;;;20.80;99.90;;;;;;5092905;28;19920;-69
2023/05/14 03:25:34;;;;;;;;;;;20.70;99.90;;;;;;5093759;28;19922;-71
2023/05/14 03:28:01;;;;;;;;;;;20.50;99.90;;;;;;5093582;28;19919;-71
2023/05/14 03:30:27;;;;;;;;;;;20.50;99.90;;;;;;5093672;28;20003;-71
2023/05/14 03:32:54;;;;;;;;;;;20.50;99.90;;;;;;5093231;28;19915;-70
2023/05/14 03:35:21;;;;;;;;;;;20.90;99.90;;;;;;5093747;28;20284;-70
2023/05/14 03:37:48;;;;;;;;;;;21.00;99.90;;;;;;5093637;28;19912;-71
2023/05/14 03:40:14;;;;;;;;;;;21.30;99.90;;;;;;5092957;28;19912;-70
2023/05/14 03:42:41;;;;;;;;;;;21.40;99.90;;;;;;5092566;28;19927;-69
2023/05/14 03:45:08;;;;;;;;;;;21.60;99.90;;;;;;5092503;28;19988;-70
2023/05/14 03:47:35;;;;;;;;;;;21.50;99.90;;;;;;5093245;28;19953;-70
2023/05/14 03:50:01;;;;;;;;;;;21.50;99.90;;;;;;5093818;28;20376;-71
2023/05/14 03:52:28;;;;;;;;;;;21.40;99.90;;;;;;5093461;28;19908;-71
2023/05/14 03:54:54;;;;;;;;;;;21.30;99.90;;;;;;5073400;28;19916;-71
2023/05/14 03:57:21;;;;;;;;;;;21.30;99.90;;;;;;5091595;28;19915;-71
2023/05/14 03:59:48;;;;;;;;;;;21.20;99.90;;;;;;5073537;28;20322;-71
2023/05/14 04:02:14;;;;;;;;;;;21.10;99.90;;;;;;5091368;28;19927;-69
2023/05/14 04:04:41;;;;;;;;;;;20.90;99.90;;;;;;5091760;28;19912;-71
2023/05/14 04:07:08;;;;;;;;;;;20.80;99.90;;;;;;5092136;28;19912;-72
2023/05/14 04:09:34;;;;;;;;;;;20.80;99.90;;;;;;5092628;28;20481;-70
2023/05/14 04:12:01;;;;;;;;;;;20.70;99.90;;;;;;5092677;28;20348;-73
2023/05/14 04:14:28;;;;;;;;;;;20.50;99.90;;;;;;5092369;28;20362;-71
2023/05/14 04:16:54;;;;;;;;;;;20.40;99.90;;;;;;5093013;28;20380;-69
2023/05/14 04:19:21;;;;;;;;;;;20.30;99.90;;;;;;5092773;28;19934;-71
2023/05/14 04:21:47;;;;;;;;;;;20.20;99.90;;;;;;5092757;28;19920;-71
2023/05/14 04:24:14;;;;;;;;;;;20.00;99.90;;;;;;5092342;28;20390;-73
2023/05/14 04:26:41;;;;;;;;;;;20.00;99.90;;;;;;5092536;28;19951;-71
2023/05/14 04:29:07;;;;;;;;;;;19.90;99.90;;;;;;5092003;28;20023;-71
2023/05/14 04:31:34;;;;;;;;;;;19.80;99.90;;;;;;5092301;28;19949;-71
2023/05/14 04:34:00;;;;;;;;;;;19.80;99.90;;;;;;5074063;28;19912;-71
2023/05/14 04:36:27;;;;;;;;;;;19.70;99.90;;;;;;5074021;28;19912;-70
2023/05/14 04:38:54;;;;;;;;;;;19.60;99.90;;;;;;5092554;28;19934;-72
2023/05/14 04:41:21;;;;;;;;;;;19.70;99.90;;;;;;5092430;28;20352;-71
2023/05/14 04:43:49;;;;;;;;;;;19.60;99.90;;;;;;5092202;28;19934;-71
2023/05/14 04:46:15;;;;;;;;;;;19.70;99.90;;;;;;5091459;28;20277;-70
2023/05/14 04:48:42;;;;;;;;;;;19.70;99.90;;;;;;5092215;28;19912;-70
2023/05/14 04:51:09;;;;;;;;;;;19.60;99.90;;;;;;5092100;28;19913;-72
2023/05/14 04:53:35;;;;;;;;;;;19.60;99.90;;;;;;5091188;28;19964;-72
2023/05/14 04:56:02;;;;;;;;;;;19.60;99.90;;;;;;5091001;28;19916;-70
2023/05/14 04:58:31;;;;;;;;;;;19.60;99.90;;;;;;5091215;28;20376;-71
2023/05/14 05:00:58;;;;;;;;;;;19.80;99.90;;;;;;5091728;28;19908;-71
2023/05/14 05:03:25;;;;;;;;;;;20.10;99.90;;;;;;5080175;28;19979;-70
2023/05/14 05:05:51;;;;;;;;;;;20.50;99.90;;;;;;5089707;28;20037;-70
2023/05/14 05:08:18;;;;;;;;;;;20.70;99.90;;;;;;5092212;28;20049;-70
2023/05/14 05:10:45;;;;;;;;;;;21.00;99.90;;;;;;5092201;28;19908;-70
2023/05/14 05:13:11;;;;;;;;;;;21.30;99.90;;;;;;5091628;28;20304;-70
2023/05/14 05:15:38;;;;;;;;;;;21.40;99.90;;;;;;5091408;28;20388;-71
2023/05/14 05:18:05;;;;;;;;;;;21.50;99.90;;;;;;5073306;28;19943;-71
2023/05/14 05:20:31;;;;;;;;;;;21.50;99.90;;;;;;5092040;28;20000;-71
2023/05/14 05:22:58;;;;;;;;;;;21.40;99.90;;;;;;5098354;28;19915;-70
2023/05/14 05:25:25;;;;;;;;;;;21.10;99.90;;;;;;5090985;28;19912;-67
2023/05/14 05:27:51;;;;;;;;;;;20.90;99.90;;;;;;5088038;28;19916;-69
2023/05/14 05:30:18;;;;;;;;;;;20.70;99.90;;;;;;5091229;28;19912;-68
2023/05/14 05:32:45;;;;;;;;;;;20.30;99.90;;;;;;5091919;28;19912;-70
2023/05/14 05:35:11;;;;;;;;;;;20.50;99.90;;;;;;5091819;28;19908;-69
2023/05/14 05:37:38;;;;;;;;;;;20.60;99.90;;;;;;5091654;28;19908;-68
2023/05/14 05:40:05;;;;;;;;;;;20.70;99.90;;;;;;5092923;28;19919;-69
2023/05/14 05:42:32;;;;;;;;;;;20.80;99.90;;;;;;5095351;28;19920;-71
2023/05/14 05:44:58;;;;;;;;;;;20.90;99.90;;;;;;5096075;28;19908;-69
2023/05/14 05:47:25;;;;;;;;;;;21.10;99.90;;;;;;5077089;28;20322;-70
2023/05/14 05:49:52;;;;;;;;;;;21.20;99.90;;;;;;5095594;28;20086;-70
2023/05/14 05:52:19;;;;;;;;;;;21.10;99.90;;;;;;5095279;28;20010;-69
2023/05/14 05:54:46;;;;;;;;;;;21.10;99.90;;;;;;5095356;28;19912;-70
2023/05/14 05:57:12;;;;;;;;;;;21.10;99.90;;;;;;5095149;28;19908;-69
2023/05/14 05:59:39;;;;;;;;;;;21.30;99.90;;;;;;5095149;28;19919;-71
2023/05/14 06:02:06;;;;;;;;;;;21.50;99.90;;;;;;5076929;28;20273;-70
2023/05/14 06:04:32;;;;;;;;;;;21.60;99.90;;;;;;5089947;28;19920;-71
2023/05/14 06:06:59;;;;;;;;;;;21.80;99.90;;;;;;5095308;28;19908;-70
2023/05/14 06:09:25;;;;;;;;;;;21.80;99.90;;;;;;5095205;28;20285;-69
2023/05/14 06:11:52;;;;;;;;;;;21.80;99.90;;;;;;5094625;28;19908;-71
2023/05/14 06:14:19;;;;;;;;;;;21.80;99.90;;;;;;5093336;28;19915;-70
2023/05/14 06:16:45;;;;;;;;;;;21.90;99.90;;;;;;5094070;28;19944;-69
2023/05/14 06:19:12;;;;;;;;;;;21.80;99.90;;;;;;5094480;28;19915;-69
2023/05/14 06:21:39;;;;;;;;;;;21.50;99.90;;;;;;5094019;28;19923;-70
2023/05/14 06:24:06;;;;;;;;;;;21.00;99.90;;;;;;5094452;28;19965;-71
2023/05/14 06:26:32;;;;;;;;;;;20.60;99.90;;;;;;5094629;28;19916;-69
2023/05/14 06:28:59;;;;;;;;;;;20.30;99.90;;;;;;5094696;28;19908;-70
2023/05/14 06:31:25;;;;;;;;;;;20.00;99.90;;;;;;5075109;28;20277;-70
2023/05/14 06:33:52;;;;;;;;;;;19.80;99.90;;;;;;5092801;28;19908;-70
2023/05/14 06:36:19;;;;;;;;;;;19.60;99.90;;;;;;5091673;28;19914;-70
2023/05/14 06:38:45;;;;;;;;;;;19.30;99.90;;;;;;5091566;28;19999;-71
2023/05/14 06:41:12;;;;;;;;;;;19.20;99.90;;;;;;5088850;28;20265;-70
2023/05/14 06:43:38;;;;;;;;;;;19.00;99.90;;;;;;5091193;28;19920;-70
2023/05/14 06:46:05;;;;;;;;;;;18.80;99.90;;;;;;5092497;28;19912;-71
2023/05/14 06:48:32;;;;;;;;;;;18.70;99.90;;;;;;5089926;28;20033;-70
2023/05/14 06:50:59;;;;;;;;;;;18.60;99.90;;;;;;5092792;28;19991;-71
2023/05/14 06:53:26;;;;;;;;;;;18.40;99.90;;;;;;5074742;28;19908;-70
2023/05/14 06:55:52;;;;;;;;;;;18.30;99.90;;;;;;5090006;28;20353;-69
2023/05/14 06:58:19;;;;;;;;;;;18.20;99.90;;;;;;5092194;28;19923;-70
2023/05/14 07:00:45;;;;;;;;;;;18.10;99.90;;;;;;5092010;28;19916;-70
2023/05/14 07:03:12;;;;;;;;;;;18.00;99.90;;;;;;5090505;28;20361;-70
2023/05/14 07:05:40;;;;;;;;;;;17.90;99.90;;;;;;5090921;28;19920;-70
2023/05/14 07:08:06;;;;;;;;;;;17.70;99.90;;;;;;5090660;28;21264;-70
2023/05/14 07:10:33;;;;;;;;;;;17.70;99.90;;;;;;5091607;28;19957;-71
2023/05/14 07:13:00;;;;;;;;;;;17.60;99.90;;;;;;5092106;28;20011;-69
2023/05/14 07:15:26;;;;;;;;;;;17.40;99.90;;;;;;5092863;28;20342;-70
2023/05/14 07:17:53;;;;;;;;;;;17.40;99.90;;;;;;5074989;28;20342;-69
2023/05/14 07:20:21;;;;;;;;;;;17.20;99.90;;;;;;5091200;28;19952;-70
2023/05/14 07:22:47;;;;;;;;;;;17.20;99.90;;;;;;5091273;28;20342;-70
2023/05/14 07:25:14;;;;;;;;;;;17.10;99.90;;;;;;5090708;28;19911;-70
2023/05/14 07:27:41;;;;;;;;;;;17.00;99.90;;;;;;5091231;28;20019;-71
2023/05/14 07:30:07;;;;;;;;;;;17.00;99.90;;;;;;5091198;28;20301;-71
2023/05/14 07:32:34;;;;;;;;;;;17.00;99.90;;;;;;5090917;28;19944;-71
2023/05/14 07:35:01;;;;;;;;;;;16.90;99.90;;;;;;5090367;28;19947;-71
2023/05/14 07:37:27;;;;;;;;;;;16.80;99.90;;;;;;5091581;28;20406;-70
2023/05/14 07:39:54;;;;;;;;;;;16.70;99.90;;;;;;5090608;28;20319;-69
2023/05/14 07:42:21;;;;;;;;;;;16.60;99.90;;;;;;5090511;28;20655;-73
2023/05/14 07:44:49;;;;;;;;;;;16.60;99.90;;;;;;5089565;28;20011;-70
2023/05/14 07:47:16;;;;;;;;;;;16.60;99.90;;;;;;5090268;28;19961;-69
2023/05/14 07:49:42;;;;;;;;;;;16.50;99.90;;;;;;5090447;28;19916;-72
2023/05/14 07:52:09;;;;;;;;;;;16.40;99.90;;;;;;5090419;28;19959;-70
2023/05/14 07:54:36;;;;;;;;;;;16.40;99.90;;;;;;5089857;28;19935;-70
2023/05/14 07:57:02;;;;;;;;;;;16.40;99.90;;;;;;5090671;28;19916;-71
2023/05/14 07:59:30;;;;;;;;;;;16.30;99.90;;;;;;5091311;28;19957;-71
2023/05/14 08:01:56;;;;;;;;;;;16.20;99.90;;;;;;5091284;28;19959;-70
2023/05/14 08:04:23;;;;;;;;;;;16.20;99.90;;;;;;5091252;28;20351;-71
2023/05/14 08:06:50;;;;;;;;;;;16.10;99.90;;;;;;5091654;28;20036;-71
2023/05/14 08:09:16;;;;;;;;;;;16.10;99.90;;;;;;5088709;28;20008;-70
2023/05/14 08:11:43;;;;;;;;;;;16.00;99.90;;;;;;5091143;28;20356;-71
2023/05/14 08:14:10;;;;;;;;;;;16.00;99.90;;;;;;5090871;28;19985;-71
2023/05/14 08:16:37;;;;;;;;;;;16.00;99.90;;;;;;5088715;28;19909;-70
2023/05/14 08:19:04;;;;;;;;;;;15.90;99.90;;;;;;5073237;28;19917;-71
2023/05/14 08:21:31;;;;;;;;;;;16.00;99.90;;;;;;5091188;28;19919;-72
2023/05/14 08:23:58;;;;;;;;;;;15.90;99.90;;;;;;5088863;28;19915;-71
2023/05/14 08:26:24;;;;;;;;;;;15.90;99.90;;;;;;5090878;28;19912;-71
2023/05/14 08:28:53;;;;;;;;;;;15.90;99.90;;;;;;5073485;28;19915;-71
2023/05/14 08:31:19;;;;;;;;;;;15.90;99.90;;;;;;5090911;28;19923;-70
2023/05/14 08:33:46;;;;;;;;;;;15.80;99.90;;;;;;5091098;28;19999;-70
2023/05/14 08:36:13;;;;;;;;;;;15.80;99.90;;;;;;5090115;28;19908;-72
2023/05/14 08:38:40;;;;;;;;;;;15.90;99.90;;;;;;5091089;28;20395;-71
2023/05/14 08:41:07;;;;;;;;;;;15.90;99.90;;;;;;5090629;28;19919;-70
2023/05/14 08:43:42;;;;;;;;;;;16.00;99.90;;;;;;5090537;28;19920;-70
2023/05/14 08:46:14;;;;;;;;;;;16.00;99.90;;;;;;5071625;28;20259;-69
2023/05/14 08:48:42;;;;;;;;;;;16.00;99.90;;;;;;5091566;28;20007;-68
2023/05/14 08:51:09;;;;;;;;;;;16.00;99.90;;;;;;5091855;28;19966;-70
2023/05/14 08:53:37;;;;;;;;;;;16.00;99.90;;;;;;5092107;28;19993;-69
2023/05/14 08:56:04;;;;;;;;;;;16.00;99.90;;;;;;5092404;28;19908;-69
2023/05/14 08:58:31;;;;;;;;;;;15.80;99.90;;;;;;5092514;28;19965;-68
2023/05/14 09:00:58;;;;;;;;;;;15.90;99.90;;;;;;5091635;28;19912;-68
2023/05/14 09:03:25;;;;;;;;;;;15.80;99.90;;;;;;5091761;28;20257;-69
2023/05/14 09:05:51;;;;;;;;;;;15.90;99.90;;;;;;5091566;28;19934;-69
2023/05/14 09:08:19;;;;;;;;;;;15.80;99.90;;;;;;5073948;28;19991;-69
2023/05/14 09:10:45;;;;;;;;;;;15.90;99.90;;;;;;5084068;28;20007;-68
2023/05/14 09:13:12;;;;;;;;;;;15.80;99.90;;;;;;5091964;28;19912;-69
2023/05/14 09:15:40;;;;;;;;;;;15.90;99.90;;;;;;5094831;28;20381;-68
2023/05/14 09:18:06;;;;;;;;;;;15.80;99.90;;;;;;5096489;28;19912;-69
2023/05/14 09:20:33;;;;;;;;;;;15.80;99.90;;;;;;5095791;28;19947;-68
2023/05/14 09:23:00;;;;;;;;;;;15.80;99.90;;;;;;5095514;28;19920;-68
2023/05/14 09:25:30;;;;;;;;;;;15.80;99.90;;;;;;5095735;28;20426;-68
2023/05/14 09:28:00;;;;;;;;;;;15.80;99.90;;;;;;5096301;28;19946;-71
2023/05/14 09:30:27;;;;;;;;;;;15.80;99.90;;;;;;5095624;28;20348;-68
2023/05/14 09:32:54;;;;;;;;;;;15.80;99.90;;;;;;5096278;28;19912;-69
2023/05/14 09:35:22;;;;;;;;;;;15.80;99.90;;;;;;5095790;28;19912;-68
2023/05/14 09:37:49;;;;;;;;;;;15.90;99.90;;;;;;5095840;28;20367;-70
2023/05/14 09:40:16;;;;;;;;;;;15.90;99.90;;;;;;5095909;28;20353;-69
2023/05/14 09:42:44;;;;;;;;;;;15.90;99.90;;;;;;5093867;28;19939;-68
2023/05/14 09:45:11;;;;;;;;;;;15.80;99.90;;;;;;5095347;28;19966;-69
2023/05/14 09:47:38;;;;;;;;;;;15.90;99.90;;;;;;5095891;28;19961;-69
2023/05/14 09:50:05;;;;;;;;;;;15.90;99.90;;;;;;5096159;28;20296;-69
2023/05/14 09:52:32;;;;;;;;;;;15.90;99.90;;;;;;5095068;28;19916;-70
2023/05/14 09:54:59;;;;;;;;;;;15.90;99.90;;;;;;5095500;28;20308;-68
2023/05/14 09:57:26;;;;;;;;;;;15.90;99.90;;;;;;5095887;28;19915;-68
2023/05/14 09:59:53;;;;;;;;;;;15.90;99.90;;;;;;5095330;28;19941;-69
2023/05/14 10:02:24;;;;;;;;;;;15.80;99.90;;;;;;5094508;28;19916;-69
2023/05/14 10:04:52;;;;;;;;;;;15.80;99.90;;;;;;5095408;28;20421;-69
2023/05/14 10:07:22;;;;;;;;;;;15.80;99.90;;;;;;5095277;28;19908;-69
2023/05/14 10:09:53;;;;;;;;;;;15.80;99.90;;;;;;5095077;28;20418;-69
2023/05/14 10:12:21;;;;;;;;;;;15.80;99.90;;;;;;5094630;28;19966;-70
2023/05/14 10:14:52;;;;;;;;;;;15.80;99.90;;;;;;5094927;28;19913;-68
2023/05/14 10:17:19;;;;;;;;;;;15.80;99.90;;;;;;5095469;28;20377;-68
2023/05/14 10:19:48;;;;;;;;;;;15.80;99.90;;;;;;5095458;28;19915;-69
2023/05/14 10:22:16;;;;;;;;;;;15.80;99.90;;;;;;5094598;28;19924;-69
2023/05/14 10:24:44;;;;;;;;;;;15.90;99.90;;;;;;5094409;28;19908;-69
2023/05/14 10:27:11;;;;;;;;;;;15.80;99.90;;;;;;5091956;28;20340;-69
2023/05/14 10:29:38;;;;;;;;;;;15.80;99.90;;;;;;5094011;28;19913;-69
2023/05/14 10:32:06;;;;;;;;;;;15.80;99.90;;;;;;5094642;28;19915;-69
2023/05/14 10:34:37;;;;;;;;;;;15.80;99.90;;;;;;5094593;28;19919;-68
2023/05/14 10:37:24;;;;;;;;;;;15.80;99.90;;;;;;5094423;28;20052;-68
2023/05/14 10:39:57;;;;;;;;;;;15.80;99.90;;;;;;5092799;28;19966;-68
2023/05/14 10:42:24;;;;;;;;;;;15.90;99.90;;;;;;5072815;28;19970;-68
2023/05/14 10:44:57;;;;;;;;;;;15.90;99.90;;;;;;5073904;28;20254;-69
2023/05/14 10:47:31;;;;;;;;;;;15.80;99.90;;;;;;5073942;28;19915;-69
2023/05/14 10:49:58;;;;;;;;;;;15.80;99.90;;;;;;5073446;28;20478;-69
2023/05/14 10:52:25;;;;;;;;;;;15.80;99.90;;;;;;5072981;28;20049;-69
2023/05/14 10:54:56;;;;;;;;;;;15.80;99.90;;;;;;5074270;28;19920;-69
2023/05/14 10:57:27;;;;;;;;;;;15.80;99.90;;;;;;5074020;28;19909;-69
2023/05/14 10:59:55;;;;;;;;;;;15.80;99.90;;;;;;5073860;28;19916;-69
2023/05/14 11:02:28;;;;;;;;;;;15.70;99.90;;;;;;5073828;28;20335;-68
2023/05/14 11:04:58;;;;;;;;;;;15.70;99.90;;;;;;5073828;28;19991;-69
2023/05/14 11:07:30;;;;;;;;;;;15.70;99.90;;;;;;5072240;28;19909;-69
2023/05/14 11:10:10;;;;;;;;;;;15.60;99.90;;;;;;5069703;28;19912;-69
2023/05/14 11:12:37;;;;;;;;;;;15.60;99.90;;;;;;5071672;28;20825;-69
2023/05/14 11:15:06;;;;;;;;;;;15.60;99.90;;;;;;5071768;28;19923;-69
2023/05/14 11:17:34;;;;;;;;;;;15.60;99.90;;;;;;5072152;28;19916;-70
2023/05/14 11:20:01;;;;;;;;;;;15.60;99.90;;;;;;5071879;28;20054;-71
2023/05/14 11:22:27;;;;;;;;;;;15.50;99.90;;;;;;5073375;28;19924;-69
2023/05/14 11:24:54;;;;;;;;;;;15.50;99.90;;;;;;5073358;28;19962;-70
2023/05/14 11:27:22;;;;;;;;;;;15.40;99.90;;;;;;5073787;28;20304;-69
2023/05/14 11:29:49;;;;;;;;;;;15.40;99.90;;;;;;5073734;28;20002;-69
2023/05/14 11:32:16;;;;;;;;;;;15.40;99.90;;;;;;5073334;28;19921;-69
2023/05/14 11:34:46;;;;;;;;;;;15.30;99.90;;;;;;5073708;28;19935;-70
2023/05/14 11:37:14;;;;;;;;;;;15.20;99.90;;;;;;5073387;28;19956;-70
2023/05/14 11:39:51;;;;;;;;;;;15.10;99.90;;;;;;5073898;28;19950;-69
2023/05/14 11:42:18;;;;;;;;;;;15.10;99.90;;;;;;5080920;28;19924;-69
2023/05/14 11:44:46;;;;;;;;;;;15.10;99.90;;;;;;5092885;28;20361;-69
2023/05/14 11:47:12;;;;;;;;;;;15.10;99.90;;;;;;5093678;28;19912;-70
2023/05/14 11:49:39;;;;;;;;;;;15.00;99.90;;;;;;5092844;28;19914;-70
2023/05/14 11:52:07;;;;;;;;;;;14.90;99.90;;;;;;5092700;28;19918;-70
2023/05/14 11:54:34;;;;;;;;;;;14.90;99.90;;;;;;5093141;28;19926;-70
2023/05/14 11:57:08;;;;;;;;;;;14.90;99.90;;;;;;5093070;28;20003;-69
2023/05/14 11:59:35;;;;;;;;;;;14.90;99.90;;;;;;5093481;28;19904;-70
2023/05/14 12:02:03;;;;;;;;;;;14.80;99.90;;;;;;5093357;28;19941;-70
2023/05/14 12:04:30;;;;;;;;;;;14.80;99.90;;;;;;5091661;28;19912;-70
2023/05/14 12:06:58;;;;;;;;;;;14.70;99.90;;;;;;5092072;28;19909;-70
2023/05/14 12:09:25;;;;;;;;;;;14.70;99.90;;;;;;5091834;28;19920;-69
2023/05/14 12:11:52;;;;;;;;;;;14.70;99.90;;;;;;5091920;28;19908;-68
2023/05/14 12:14:19;;;;;;;;;;;14.60;99.90;;;;;;5091498;28;19915;-70
2023/05/14 12:16:46;;;;;;;;;;;14.60;99.90;;;;;;5091417;28;19951;-71
2023/05/14 12:19:22;;;;;;;;;;;14.50;99.90;;;;;;5091786;28;19952;-70
2023/05/14 12:21:49;;;;;;;;;;;14.50;99.90;;;;;;5091165;28;19927;-70
2023/05/14 12:24:17;;;;;;;;;;;14.60;99.90;;;;;;5092562;28;19908;-69
2023/05/14 12:26:45;;;;;;;;;;;14.50;99.90;;;;;;5092908;28;20069;-70
2023/05/14 12:29:12;;;;;;;;;;;14.40;99.90;;;;;;5092580;28;19958;-69
2023/05/14 12:31:44;;;;;;;;;;;14.50;99.90;;;;;;5092033;28;19912;-69
2023/05/14 12:34:11;;;;;;;;;;;14.40;99.90;;;;;;5092084;28;19908;-68
2023/05/14 12:36:37;;;;;;;;;;;14.40;99.90;;;;;;5092548;28;19915;-70
2023/05/14 12:39:04;;;;;;;;;;;14.40;99.90;;;;;;5092337;28;20379;-70
2023/05/14 12:41:32;;;;;;;;;;;14.30;99.90;;;;;;5092516;28;19908;-69
2023/05/14 12:43:59;;;;;;;;;;;14.30;99.90;;;;;;5092157;28;19927;-69
2023/05/14 12:46:26;;;;;;;;;;;14.30;99.90;;;;;;5091068;28;19919;-70
2023/05/14 12:48:53;;;;;;;;;;;14.30;99.90;;;;;;5091288;28;19912;-69
2023/05/14 12:51:20;;;;;;;;;;;14.20;99.90;;;;;;5092320;28;19908;-69
2023/05/14 12:53:47;;;;;;;;;;;14.20;99.90;;;;;;5092803;28;19954;-69
2023/05/14 12:56:13;;;;;;;;;;;14.10;99.90;;;;;;5092268;28;19923;-70
2023/05/14 12:58:40;;;;;;;;;;;14.20;99.90;;;;;;5092376;28;19938;-69
2023/05/14 13:01:07;;;;;;;;;;;14.20;99.90;;;;;;5092579;28;20440;-69
2023/05/14 13:03:33;;;;;;;;;;;14.20;99.90;;;;;;5092367;28;19963;-70
2023/05/14 13:06:00;;;;;;;;;;;14.20;99.90;;;;;;5092437;28;19916;-69
2023/05/14 13:08:27;;;;;;;;;;;14.30;99.90;;;;;;5092215;28;19973;-70
2023/05/14 13:10:54;;;;;;;;;;;14.30;99.90;;;;;;5091137;28;19916;-69
2023/05/14 13:13:21;;;;;;;;;;;14.30;99.90;;;;;;5092334;28;20376;-69
2023/05/14 13:15:48;;;;;;;;;;;14.30;99.90;;;;;;5092788;28;19908;-69
2023/05/14 13:18:15;;;;;;;;;;;14.30;99.90;;;;;;5089829;28;19912;-69
2023/05/14 13:20:42;;;;;;;;;;;14.30;99.90;;;;;;5092480;28;19960;-69
2023/05/14 13:23:09;;;;;;;;;;;14.30;99.90;;;;;;5090467;28;20002;-69
2023/05/14 13:25:35;;;;;;;;;;;14.30;99.90;;;;;;5089819;28;19961;-70
2023/05/14 13:28:02;;;;;;;;;;;14.30;99.90;;;;;;5092124;28;20011;-69
2023/05/14 13:30:28;;;;;;;;;;;14.30;99.90;;;;;;5074082;28;19908;-70
2023/05/14 13:32:55;;;;;;;;;;;14.30;99.90;;;;;;5091441;28;19916;-69
2023/05/14 13:35:22;;;;;;;;;;;14.30;99.90;;;;;;5091622;28;19931;-69
2023/05/14 13:37:48;;;;;;;;;;;14.20;99.90;;;;;;5092428;28;20376;-69
2023/05/14 13:40:15;;;;;;;;;;;14.20;99.90;;;;;;5091891;28;19919;-69
2023/05/14 13:42:42;;;;;;;;;;;14.20;99.90;;;;;;5091468;28;20404;-68
2023/05/14 13:45:10;;;;;;;;;;;14.20;99.90;;;;;;5091168;28;19917;-70
2023/05/14 13:47:37;;;;;;;;;;;14.10;99.90;;;;;;5091923;28;19970;-69
2023/05/14 13:50:03;;;;;;;;;;;14.00;99.90;;;;;;5091909;28;20331;-69
2023/05/14 13:52:30;;;;;;;;;;;14.00;99.90;;;;;;5091977;28;19908;-69
2023/05/14 13:54:57;;;;;;;;;;;14.00;99.90;;;;;;5091753;28;19987;-69
2023/05/14 13:57:23;;;;;;;;;;;14.00;99.90;;;;;;5091395;28;19938;-69
2023/05/14 13:59:50;;;;;;;;;;;14.00;99.90;;;;;;5091889;28;19908;-70
2023/05/14 14:02:16;;;;;;;;;;;13.90;99.90;;;;;;5094787;28;19958;-69
2023/05/14 14:04:43;;;;;;;;;;;13.90;99.90;;;;;;5095168;28;19944;-70
2023/05/14 14:07:10;;;;;;;;;;;13.80;99.90;;;;;;5095682;28;19908;-69
2023/05/14 14:09:36;;;;;;;;;;;13.80;99.90;;;;;;5094789;28;20345;-69
2023/05/14 14:12:03;;;;;;;;;;;13.80;99.90;;;;;;5076917;28;19957;-70
2023/05/14 14:14:30;;;;;;;;;;;13.80;99.90;;;;;;5095533;28;20376;-69
2023/05/14 14:16:56;;;;;;;;;;;13.80;99.90;;;;;;5095476;28;19930;-70